Time;durP1;ratioP1;P1;durP2;ratioP2;P2;SDS_P1;SDS_P2;PMS_P1;PMS_P2;Temp;Humidity;BMP_temperature;BMP_pressure;BME280_temperature;BME280_humidity;BME280_pressure;Samples;Min_cycle;Max_cycle;Signal;HPM_P1;HPM_P2
2022/12/15 00:40:42;;;;;;;50.95;20.55;;;;;;;7.14;60.57;96885.16;4335702;33;20219;-85
2022/12/15 00:43:10;;;;;;;42.90;19.73;;;;;;;7.15;60.30;96876.56;4335024;33;20102;-85
2022/12/15 00:48:23;;;;;;;44.95;19.33;;;;;;;6.65;61.88;96877.19;4335548;33;20114;-85
2022/12/15 00:50:52;;;;;;;;;;;;;;;6.08;63.34;96875.50;4335895;33;20096;-84
2022/12/15 01:21:00;;;;;;;44.72;19.95;;;;;;;6.48;63.24;96917.28;4350267;33;20131;-85
2022/12/15 01:23:27;;;;;;;47.65;19.67;;;;;;;7.20;60.96;96927.66;4336663;33;20091;-85
2022/12/15 01:25:55;;;;;;;44.58;19.00;;;;;;;6.86;62.21;96928.38;4337018;33;20145;-85
2022/12/15 01:28:22;;;;;;;50.70;20.55;;;;;;;7.09;61.18;96930.72;4350203;33;20098;-85
2022/12/15 01:30:50;;;;;;;44.10;20.35;;;;;;;6.92;61.17;96923.81;4349759;32;20442;-85
2022/12/15 01:33:18;;;;;;;42.95;19.55;;;;;;;7.09;60.70;96923.00;4350172;33;20140;-85
2022/12/15 01:35:57;;;;;;;48.30;20.33;;;;;;;7.15;60.89;96916.78;4336722;33;20083;-85
2022/12/15 01:38:25;;;;;;;49.10;19.37;;;;;;;6.54;62.18;96911.88;4349981;33;20095;-85
2022/12/15 01:40:58;;;;;;;49.53;20.75;;;;;;;6.08;64.27;96904.50;4350019;33;20099;-85
2022/12/15 01:43:29;;;;;;;51.15;20.88;;;;;;;6.76;62.64;96911.75;4336823;33;20092;-85
2022/12/15 01:46:03;;;;;;;48.03;20.73;;;;;;;6.81;62.04;96910.66;4349730;33;20446;-85
2022/12/15 01:48:33;;;;;;;46.88;18.98;;;;;;;6.69;62.29;96913.75;4350144;33;20103;-85
2022/12/15 01:51:14;;;;;;;44.80;20.62;;;;;;;6.63;63.04;96920.00;4349956;33;20096;-84
2022/12/15 01:54:01;;;;;;;45.15;18.05;;;;;;;6.61;62.85;96918.41;4348971;33;20087;-84
2022/12/15 01:56:32;;;;;;;46.00;19.57;;;;;;;7.01;61.72;96922.53;4339083;33;20106;-84
2022/12/15 01:59:04;;;;;;;49.20;20.35;;;;;;;7.36;59.92;96920.91;4349861;33;20108;-85
2022/12/15 02:01:31;;;;;;;47.20;19.92;;;;;;;6.75;61.03;96904.97;4349688;33;20091;-84
2022/12/15 02:03:58;;;;;;;46.13;19.87;;;;;;;7.06;60.82;96904.38;4349997;33;20083;-84
2022/12/15 02:06:25;;;;;;;47.38;18.55;;;;;;;7.48;58.74;96898.94;4349441;33;20087;-84
2022/12/15 02:08:54;;;;;;;44.95;18.70;;;;;;;7.95;56.55;96895.75;4349887;33;20417;-84
2022/12/15 02:11:51;;;;;;;48.70;20.10;;;;;;;7.83;56.25;96892.88;4349838;33;20092;-84
2022/12/15 02:14:48;;;;;;;44.20;18.58;;;;;;;7.61;56.23;96906.87;4349257;33;20156;-84
2022/12/15 02:17:44;;;;;;;43.77;18.47;;;;;;;8.20;54.29;96919.31;4349825;33;20422;-84
2022/12/15 02:20:41;;;;;;;47.90;19.92;;;;;;;8.05;53.15;96938.88;4295961;33;20109;-84
2022/12/15 02:23:20;;;;;;;47.85;19.83;;;;;;;6.31;59.95;96941.09;4336391;33;20107;-84
2022/12/15 02:26:14;;;;;;;44.13;19.67;;;;;;;5.95;59.70;96949.41;4349701;33;20339;-84
2022/12/15 02:29:12;;;;;;;42.88;17.45;;;;;;;6.31;59.54;96938.53;4349605;33;20075;-84
2022/12/15 02:31:53;;;;;;;46.33;18.98;;;;;;;7.15;56.92;96927.03;4349749;33;20123;-84
2022/12/15 02:34:36;;;;;;;42.00;19.23;;;;;;;6.14;59.79;96931.56;4336092;33;20103;-85
2022/12/15 02:37:11;;;;;;;45.17;19.50;;;;;;;5.49;61.42;96930.81;4349532;33;20087;-84
2022/12/15 02:39:38;;;;;;;48.30;20.15;;;;;;;6.56;59.72;96933.97;4336210;33;20079;-84
2022/12/15 02:42:05;;;;;;;;;;;;;;;6.93;58.58;96930.59;4349549;33;20118;-85
2022/12/15 02:44:38;;;;;;;45.47;18.92;;;;;;;5.93;62.43;96930.72;4349505;33;19993;-84
2022/12/15 02:47:30;;;;;;;42.78;19.33;;;;;;;6.80;59.41;96954.28;4349465;33;20110;-84
2022/12/15 02:50:00;;;;;;;42.85;18.35;;;;;;;7.54;56.05;96934.56;4349333;33;20084;-84
2022/12/15 02:52:39;;;;;;;46.20;19.48;;;;;;;7.85;55.08;96926.19;4349355;33;20158;-84
2022/12/15 02:55:15;;;;;;;41.65;17.98;;;;;;;7.30;56.89;96938.31;4349028;33;20090;-85
2022/12/15 02:58:32;;;;;;;43.73;18.40;;;;;;;7.64;56.30;96925.50;4348262;33;20087;-84
2022/12/15 03:01:05;;;;;;;48.10;19.70;;;;;;;7.50;56.48;96920.22;4346497;33;20671;-84
2022/12/15 03:03:33;;;;;;;45.50;20.17;;;;;;;7.22;57.80;96923.25;4348884;33;20704;-85
2022/12/15 03:06:04;;;;;;;45.65;19.08;;;;;;;7.77;56.19;96929.16;4336200;33;20237;-84
2022/12/15 03:08:31;;;;;;;44.90;20.00;;;;;;;7.98;55.72;96941.84;4350810;33;20088;-85
2022/12/15 03:10:58;;;;;;;45.92;19.37;;;;;;;8.22;55.18;96955.19;4350993;33;20548;-85
2022/12/15 03:13:25;;;;;;;49.20;21.73;;;;;;;8.27;54.31;96953.22;4350876;33;20099;-85
2022/12/15 03:15:53;;;;;;;44.85;19.85;;;;;;;7.94;55.28;96958.31;4350694;33;20517;-85
2022/12/15 03:18:20;;;;;;;46.65;19.62;;;;;;;7.47;56.68;96966.56;4351056;33;20091;-84
2022/12/15 03:20:47;;;;;;;48.55;20.88;;;;;;;7.04;58.96;96965.19;4350752;33;20086;-84
2022/12/15 03:23:14;;;;;;;;;;;;;;;6.44;60.87;96959.31;4350961;33;20099;-84
2022/12/15 03:25:43;;;;;;;50.25;20.12;;;;;;;6.49;61.77;96955.66;4350994;33;20315;-84
2022/12/15 03:28:10;;;;;;;49.95;20.40;;;;;;;6.37;61.91;96961.31;4351041;33;20102;-84
2022/12/15 03:30:37;;;;;;;47.13;20.20;;;;;;;6.95;60.79;96971.56;4350524;33;20153;-85
2022/12/15 03:33:04;;;;;;;;;;;;;;;6.95;60.58;96974.13;4351312;33;20118;-84
2022/12/15 03:35:32;;;;;;;49.80;21.60;;;;;;;6.34;62.86;96982.78;4350859;33;19982;-84
2022/12/15 03:37:59;;;;;;;58.30;23.08;;;;;;;5.90;65.23;96982.06;4350614;33;20099;-84
2022/12/15 03:40:26;;;;;;;50.72;22.10;;;;;;;5.96;65.44;96976.72;4350775;33;20087;-84
2022/12/15 03:42:53;;;;;;;47.92;20.55;;;;;;;6.28;64.23;96969.41;4350808;33;20151;-84
2022/12/15 03:45:21;;;;;;;;;;;;;;;5.98;64.99;96974.09;4349605;33;20115;-84
2022/12/15 03:47:49;;;;;;;46.92;21.65;;;;;;;6.55;63.36;96969.94;4349777;33;19971;-84
2022/12/15 03:50:19;;;;;;;48.90;20.17;;;;;;;6.42;62.73;96971.38;4350768;33;20579;-84
2022/12/15 03:52:53;;;;;;;54.45;21.58;;;;;;;6.05;64.05;96981.44;4350443;33;20135;-84
2022/12/15 03:55:21;;;;;;;48.97;20.00;;;;;;;5.32;67.77;96981.00;4337506;33;20107;-84
2022/12/15 03:57:48;;;;;;;53.63;21.70;;;;;;;5.20;69.18;96983.09;4350523;33;20103;-84
2022/12/15 04:00:17;;;;;;;55.75;23.05;;;;;;;5.43;68.25;96982.22;4350650;33;20519;-84
2022/12/15 04:02:45;;;;;;;52.03;21.25;;;;;;;5.07;69.96;96989.56;4337496;33;20434;-84
2022/12/15 04:05:24;;;;;;;54.92;23.45;;;;;;;4.59;72.60;96997.31;4350472;33;20166;-84
2022/12/15 04:07:56;;;;;;;50.15;22.58;;;;;;;4.30;74.57;96995.78;4350710;33;20091;-84
2022/12/15 04:10:24;;;;;;;60.78;22.95;;;;;;;4.36;74.80;96998.13;4350457;33;20075;-84
2022/12/15 04:13:08;;;;;;;54.00;23.15;;;;;;;4.88;72.46;96999.63;4350493;33;20155;-84
2022/12/15 04:15:37;;;;;;;54.05;23.12;;;;;;;5.22;71.06;97003.53;4337152;33;20122;-84
2022/12/15 04:18:08;;;;;;;57.78;24.12;;;;;;;5.91;66.89;97006.78;4350111;33;20091;-84
2022/12/15 04:20:37;;;;;;;57.70;24.25;;;;;;;5.22;68.26;97006.06;4350293;33;20124;-84
2022/12/15 04:23:06;;;;;;;55.97;24.23;;;;;;;5.55;68.15;96996.25;4350564;33;20092;-84
2022/12/15 05:32:25;;;;;;;44.95;20.83;;;;;;;7.69;54.84;97064.78;4335502;33;20768;-84
2022/12/15 05:34:52;;;;;;;49.60;21.52;;;;;;;7.51;55.40;97063.88;4335451;33;20102;-84
2022/12/15 05:37:19;;;;;;;;;;;;;;;7.30;55.78;97058.91;4335362;33;20109;-84
2022/12/15 05:39:46;;;;;;;44.17;19.27;;;;;;;7.08;56.72;97046.22;4335383;33;19975;-84
2022/12/15 05:42:12;;;;;;;;;;;;;;;6.93;56.91;97035.75;4335735;33;20114;-84
2022/12/15 05:44:39;;;;;;;43.70;20.70;;;;;;;6.87;56.75;97038.56;4335104;33;19975;-84
2022/12/15 05:47:08;;;;;;;50.25;23.12;;;;;;;6.91;56.87;97046.94;4335317;33;20110;-84
2022/12/15 05:49:35;;;;;;;55.20;26.73;;;;;;;7.05;56.52;97042.06;4335352;33;20449;-84
2022/12/15 05:52:02;;;;;;;62.30;29.58;;;;;;;7.00;56.15;97064.50;4334831;33;20110;-84
2022/12/15 05:54:29;;;;;;;48.97;23.55;;;;;;;7.63;54.57;97089.87;4335279;33;20083;-84
2022/12/15 05:56:56;;;;;;;48.85;23.33;;;;;;;8.02;52.63;97093.16;4334764;33;20084;-85
2022/12/15 05:59:22;;;;;;;;;;;;;;;7.91;52.73;97097.16;4335421;33;20111;-84
2022/12/15 06:01:49;;;;;;;50.12;23.33;;;;;;;7.05;53.66;97084.81;4335447;33;19983;-84
2022/12/15 06:04:16;;;;;;;54.13;25.05;;;;;;;7.54;52.90;97079.13;4334725;33;20150;-84
2022/12/15 06:06:43;;;;;;;55.20;25.65;;;;;;;7.94;51.93;97081.59;4335073;33;20091;-84
2022/12/15 06:09:10;;;;;;;51.45;24.08;;;;;;;8.46;49.75;97100.50;4335171;33;20091;-84
2022/12/15 06:11:37;;;;;;;60.67;27.60;;;;;;;8.62;49.18;97114.25;4334469;33;20521;-85
2022/12/15 06:14:04;;;;;;;52.47;24.90;;;;;;;8.06;49.77;97114.41;4339498;33;20142;-84
2022/12/15 06:16:31;;;;;;;61.90;29.50;;;;;;;6.94;52.15;97126.31;4336473;33;20084;-85
2022/12/15 06:19:00;;;;;;;127.60;51.25;;;;;;;6.58;53.73;97131.25;4349464;33;20115;-85
2022/12/15 06:21:30;;;;;;;124.62;49.85;;;;;;;5.76;58.10;97114.88;4349485;33;20446;-84
2022/12/15 06:23:57;;;;;;;219.10;84.25;;;;;;;5.85;57.68;97106.84;4336435;33;20549;-85
2022/12/15 06:26:26;;;;;;;159.68;64.10;;;;;;;5.86;58.41;97108.50;4348361;33;20390;-85
2022/12/15 06:28:56;;;;;;;122.25;48.45;;;;;;;6.12;58.93;97120.31;4349703;33;20107;-85
2022/12/15 06:31:24;;;;;;;112.30;44.65;;;;;;;5.12;62.75;97135.16;4349442;33;20100;-85
2022/12/15 06:33:52;;;;;;;90.22;37.92;;;;;;;6.26;59.41;97143.63;4349422;33;20146;-85
2022/12/15 06:36:28;;;;;;;55.67;27.13;;;;;;;6.26;59.60;97147.94;4349623;33;20547;-86
2022/12/15 06:39:00;;;;;;;57.70;25.58;;;;;;;5.90;60.79;97160.41;4349458;33;20159;-86
2022/12/15 06:41:30;;;;;;;60.15;26.70;;;;;;;6.16;60.10;97164.56;4348956;33;20178;-86
2022/12/15 06:43:58;;;;;;;58.92;24.80;;;;;;;5.48;60.96;97172.19;4349578;33;20599;-86
2022/12/15 06:46:26;;;;;;;64.03;29.63;;;;;;;6.03;59.96;97162.47;4349607;33;20079;-87
2022/12/15 06:48:54;;;;;;;63.30;28.27;;;;;;;6.03;58.73;97167.59;4350119;33;20088;-88
2022/12/15 06:51:21;;;;;;;73.50;30.37;;;;;;;5.69;60.50;97170.56;4350038;33;20084;-87
2022/12/15 06:53:47;;;;;;;55.90;25.62;;;;;;;4.83;62.32;97172.78;4349371;33;20596;-86
2022/12/15 06:56:18;;;;;;;;;;;;;;;4.55;65.11;97180.50;4350494;33;20081;-85
2022/12/15 06:58:49;;;;;;;66.10;25.75;;;;;;;3.98;68.78;97184.03;4348894;33;19977;-85
2022/12/15 07:01:21;;;;;;;58.67;26.52;;;;;;;5.57;62.50;97188.09;4351489;33;20100;-85
2022/12/15 07:03:49;;;;;;;64.18;27.52;;;;;;;5.23;63.88;97192.72;4325983;33;20052;-85
2022/12/15 07:06:16;;;;;;;74.65;29.35;;;;;;;5.20;63.67;97192.78;4348626;33;20083;-85
2022/12/15 07:08:47;;;;;;;78.75;32.55;;;;;;;5.28;63.74;97191.69;4349500;33;20115;-84
2022/12/15 07:11:15;;;;;;;66.05;28.50;;;;;;;3.52;71.72;97189.66;4337124;33;20544;-83
2022/12/15 07:13:41;;;;;;;;;;;;;;;4.36;69.93;97205.00;4349124;33;20103;-82
2022/12/15 07:16:10;;;;;;;68.97;28.00;;;;;;;5.36;66.21;97200.78;4348898;33;20344;-82
2022/12/15 07:18:39;;;;;;;68.82;29.25;;;;;;;5.18;67.25;97207.38;4348865;33;20157;-78
2022/12/15 07:21:07;;;;;;;73.50;27.33;;;;;;;5.20;68.02;97207.31;4348362;33;20565;-78
2022/12/15 07:23:35;;;;;;;67.62;27.02;;;;;;;5.66;66.16;97198.00;4348706;33;20114;-79
2022/12/15 07:26:19;;;;;;;62.55;27.98;;;;;;;5.58;66.78;97212.81;4349330;33;20701;-79
2022/12/15 07:28:46;;;;;;;67.05;29.42;;;;;;;6.04;65.38;97235.84;4349451;33;20151;-80
2022/12/15 07:31:14;;;;;;;68.45;29.05;;;;;;;7.55;58.92;97241.72;4347717;33;20115;-79
2022/12/15 07:33:41;;;;;;;76.95;30.37;;;;;;;7.07;61.03;97247.19;4348669;33;20147;-79
2022/12/15 07:36:08;;;;;;;81.60;31.30;;;;;;;7.36;59.78;97245.97;4347958;33;20417;-81
2022/12/15 07:38:35;;;;;;;87.88;33.88;;;;;;;6.81;61.28;97231.16;4347176;33;20122;-80
2022/12/15 07:41:05;;;;;;;65.43;26.92;;;;;;;6.64;62.09;97223.28;4347502;33;20107;-79
2022/12/15 07:43:32;;;;;;;71.80;28.10;;;;;;;6.99;61.50;97214.16;4347052;33;20099;-80
2022/12/15 07:46:00;;;;;;;78.10;30.70;;;;;;;6.79;62.83;97219.25;4348454;33;20091;-79
2022/12/15 07:48:28;;;;;;;68.00;27.80;;;;;;;6.07;65.29;97251.13;4338121;33;20111;-80
2022/12/15 07:50:58;;;;;;;79.15;30.55;;;;;;;7.13;61.25;97260.59;4348401;33;20110;-83
2022/12/15 07:53:35;;;;;;;65.30;26.67;;;;;;;7.36;60.99;97246.81;4349438;33;20142;-84
2022/12/15 07:56:04;;;;;;;63.00;26.77;;;;;;;6.14;64.37;97232.94;4350826;33;20132;-83
2022/12/15 07:58:35;;;;;;;72.18;28.52;;;;;;;6.90;62.50;97253.00;4351401;33;20113;-85
2022/12/15 08:01:05;;;;;;;76.75;31.37;;;;;;;6.88;63.25;97267.59;4350540;33;20095;-84
2022/12/15 08:03:32;;;;;;;96.22;32.70;;;;;;;7.51;60.51;97269.22;4350694;33;20579;-84
2022/12/15 08:06:07;;;;;;;121.65;38.08;;;;;;;7.04;62.41;97278.94;4350581;33;20103;-84
2022/12/15 08:08:34;;;;;;;105.85;34.13;;;;;;;6.00;67.03;97289.81;4337252;33;20472;-83
2022/12/15 08:11:06;;;;;;;91.35;29.37;;;;;;;6.72;65.70;97293.03;4336866;33;20163;-83
2022/12/15 08:13:33;;;;;;;113.75;35.03;;;;;;;6.67;65.08;97298.34;4337093;33;20091;-83
2022/12/15 08:16:20;;;;;;;98.68;29.52;;;;;;;7.29;63.35;97308.69;4350242;33;20075;-84
2022/12/15 08:18:47;;;;;;;119.75;31.33;;;;;;;7.03;64.59;97327.72;4350217;33;20462;-84
2022/12/15 08:21:14;;;;;;;152.02;28.40;;;;;;;7.29;64.01;97329.22;4350324;33;20154;-83
2022/12/15 08:23:41;;;;;;;121.80;25.92;;;;;;;7.14;64.20;97330.69;4350347;33;20138;-83
2022/12/15 08:26:11;;;;;;;140.37;29.55;;;;;;;7.73;61.03;97340.19;4349902;33;20505;-83
2022/12/15 08:28:39;;;;;;;113.75;30.70;;;;;;;7.33;62.44;97338.47;4350387;33;20095;-83
2022/12/15 08:31:11;;;;;;;77.35;25.48;;;;;;;6.89;64.57;97339.34;4337227;33;20107;-83
2022/12/15 08:33:39;;;;;;;82.85;26.60;;;;;;;6.55;64.78;97332.13;4337031;33;20154;-83
2022/12/15 08:36:08;;;;;;;88.43;28.17;;;;;;;7.19;63.63;97324.47;4350332;33;20336;-84
2022/12/15 08:38:40;;;;;;;77.75;27.37;;;;;;;6.99;64.12;97309.03;4350110;33;20443;-83
2022/12/15 08:41:15;;;;;;;60.97;22.58;;;;;;;7.48;62.58;97310.44;4350409;33;20134;-82
2022/12/15 08:43:43;;;;;;;61.35;24.37;;;;;;;7.19;63.38;97303.94;4351185;33;20087;-82
2022/12/15 08:46:20;;;;;;;63.28;23.35;;;;;;;6.56;65.60;97309.91;4350206;33;20473;-81
2022/12/15 08:48:47;;;;;;;72.90;25.98;;;;;;;7.18;63.91;97309.13;4350711;33;20576;-80
2022/12/15 08:51:15;;;;;;;67.82;25.62;;;;;;;7.35;61.50;97311.03;4351033;32;20103;-82
2022/12/15 08:53:42;;;;;;;69.30;25.25;;;;;;;7.14;63.88;97315.31;4336691;33;20082;-79
2022/12/15 08:56:12;;;;;;;78.65;28.75;;;;;;;4.79;73.32;97316.91;4350169;33;20130;-79
2022/12/15 08:58:39;;;;;;;73.07;27.27;;;;;;;6.61;67.66;97320.81;4350258;33;20099;-80
2022/12/15 09:01:10;;;;;;;;;;;;;;;6.79;66.90;97319.25;4350041;33;20138;-82
2022/12/15 09:03:43;;;;;;;62.13;23.73;;;;;;;7.01;65.91;97329.50;4350042;33;19989;-80
2022/12/15 09:06:18;;;;;;;67.53;26.20;;;;;;;7.29;64.20;97342.06;4349829;33;20079;-80
2022/12/15 09:08:44;;;;;;;57.95;24.75;;;;;;;7.18;65.35;97352.75;4349110;33;20115;-80
2022/12/15 09:11:16;;;;;;;63.80;25.25;;;;;;;7.34;63.56;97356.37;4349895;33;20166;-79
2022/12/15 09:13:43;;;;;;;65.43;27.75;;;;;;;6.51;66.96;97358.78;4350276;33;20155;-81
2022/12/15 09:16:12;;;;;;;66.82;27.15;;;;;;;7.38;63.75;97362.22;4349929;33;20524;-81
2022/12/15 09:18:44;;;;;;;65.22;26.45;;;;;;;7.38;64.02;97362.22;4350099;33;20110;-81
2022/12/15 09:21:12;;;;;;;64.25;25.33;;;;;;;7.93;62.36;97368.44;4349556;33;20163;-80
2022/12/15 09:23:39;;;;;;;63.20;26.05;;;;;;;7.99;61.06;97364.78;4350153;33;20098;-81
2022/12/15 09:26:11;;;;;;;65.50;25.45;;;;;;;7.97;61.37;97364.81;4349911;33;20562;-81
2022/12/15 09:28:39;;;;;;;70.72;28.20;;;;;;;8.36;60.03;97362.28;4349789;33;20472;-81
2022/12/15 09:31:07;;;;;;;67.68;25.00;;;;;;;7.27;64.85;97360.09;4349967;33;20100;-80
2022/12/15 09:33:35;;;;;;;76.12;26.45;;;;;;;7.38;64.43;97342.53;4350082;33;20175;-81
2022/12/15 09:36:02;;;;;;;71.65;27.65;;;;;;;6.89;67.57;97344.47;4349835;33;20118;-83
2022/12/15 09:38:30;;;;;;;74.12;27.10;;;;;;;7.33;64.86;97351.28;4349951;33;20091;-83
2022/12/15 09:40:56;;;;;;;63.97;25.55;;;;;;;7.25;65.58;97339.63;4349842;33;20122;-81
2022/12/15 09:43:26;;;;;;;68.65;26.70;;;;;;;6.96;66.29;97339.94;4349561;33;20087;-81
2022/12/15 09:46:14;;;;;;;70.53;27.67;;;;;;;7.05;66.01;97336.19;4337523;33;20091;-80
2022/12/15 09:48:42;;;;;;;76.68;26.12;;;;;;;8.23;62.45;97327.72;4350266;33;20138;-79
2022/12/15 09:51:13;;;;;;;72.72;26.60;;;;;;;7.41;64.99;97323.59;4336568;33;20100;-79
2022/12/15 09:53:40;;;;;;;72.15;26.62;;;;;;;8.13;62.90;97326.47;4336628;33;20157;-79
2022/12/15 09:56:32;;;;;;;72.68;28.58;;;;;;;8.19;61.52;97336.50;4348957;33;20374;-79
2022/12/15 09:59:09;;;;;;;70.07;24.90;;;;;;;7.62;63.86;97335.53;4336663;33;20245;-79
2022/12/15 10:01:45;;;;;;;89.13;28.12;;;;;;;7.53;64.67;97328.19;4336285;33;20112;-79
2022/12/15 10:04:25;;;;;;;83.15;27.17;;;;;;;8.04;62.21;97317.44;4349419;33;20146;-79
2022/12/15 10:07:02;;;;;;;90.20;30.20;;;;;;;7.45;64.52;97312.31;4349518;33;20595;-79
2022/12/15 10:09:29;;;;;;;75.30;21.58;;;;;;;8.20;62.22;97316.75;4349446;33;20091;-80
2022/12/15 10:12:02;;;;;;;93.80;30.85;;;;;;;6.88;67.87;97311.19;4349701;33;20371;-79
2022/12/15 10:14:42;;;;;;;90.15;30.88;;;;;;;6.79;70.43;97314.97;4349558;33;20083;-79
2022/12/15 10:17:22;;;;;;;72.93;26.30;;;;;;;7.42;67.30;97310.69;4335014;33;20088;-79
2022/12/15 10:19:49;;;;;;;81.65;25.50;;;;;;;7.49;66.22;97316.41;4349573;33;20170;-79
2022/12/15 10:22:18;;;;;;;;;;;;;;;7.90;64.52;97330.06;4349912;33;20611;-79
2022/12/15 10:24:45;;;;;;;72.22;21.67;;;;;;;7.72;65.15;97329.09;4348110;33;19989;-79
2022/12/15 10:27:56;;;;;;;80.75;25.52;;;;;;;8.28;62.34;97333.47;4349266;33;20087;-80
2022/12/15 10:30:23;;;;;;;94.07;27.85;;;;;;;8.38;62.39;97329.62;4349421;33;20092;-79
2022/12/15 10:33:02;;;;;;;55.70;20.90;;;;;;;8.32;62.70;97331.63;4349497;33;20162;-79
2022/12/15 10:35:33;;;;;;;54.05;20.40;;;;;;;7.71;65.01;97330.00;4349653;33;20110;-79
2022/12/15 10:38:05;;;;;;;83.40;27.58;;;;;;;8.24;61.88;97336.28;4349196;33;20088;-84
2022/12/15 10:40:53;;;;;;;86.55;24.92;;;;;;;7.79;64.46;97337.38;4349249;33;20107;-79
2022/12/15 10:43:27;;;;;;;73.12;25.05;;;;;;;7.97;63.78;97334.00;4349396;33;20095;-79
2022/12/15 10:46:09;;;;;;;116.45;26.77;;;;;;;7.94;64.46;97334.16;4335711;33;20168;-79
2022/12/15 10:48:36;;;;;;;102.30;27.33;;;;;;;7.95;62.88;97335.81;4349242;33;20102;-79
2022/12/15 10:51:25;;;;;;;101.22;29.15;;;;;;;7.48;65.95;97341.25;4349130;33;20122;-79
2022/12/15 10:54:11;;;;;;;97.50;29.92;;;;;;;7.13;68.48;97341.84;4307300;33;20134;-79
2022/12/15 10:56:52;;;;;;;96.93;30.33;;;;;;;7.57;66.20;97344.34;4349253;33;20579;-79
2022/12/15 10:59:37;;;;;;;78.82;24.95;;;;;;;7.15;67.85;97355.44;4350176;33;20142;-82
2022/12/15 11:02:19;;;;;;;78.90;30.80;;;;;;;7.09;68.77;97361.66;4359139;32;20068;-81
2022/12/15 11:04:55;;;;;;;84.10;33.40;;;;;;;6.82;68.64;97370.44;4357554;33;20056;-81
2022/12/15 11:07:23;;;;;;;87.07;34.38;;;;;;;5.76;72.24;97371.69;4356887;33;20063;-80
2022/12/15 11:13:20;;;;;;;90.03;33.22;;;;;;;7.42;64.06;97381.72;4361353;33;20068;-79
2022/12/15 11:15:51;;;;;;;88.18;34.55;;;;;;;6.48;66.01;97369.13;4360521;33;20086;-80
2022/12/15 11:18:36;;;;;;;93.07;35.22;;;;;;;5.91;70.18;97374.62;4363100;32;20059;-79
2022/12/15 11:21:22;;;;;;;94.35;34.78;;;;;;;5.42;74.01;97377.09;4360925;33;20734;-79
2022/12/15 11:24:09;;;;;;;88.72;31.20;;;;;;;7.24;66.03;97388.44;4348880;33;20072;-80
2022/12/15 11:26:43;;;;;;;99.05;31.60;;;;;;;7.87;63.19;97384.13;4360450;33;20068;-80
2022/12/15 11:29:37;;;;;;;91.37;33.70;;;;;;;8.08;63.12;97388.34;4350598;33;20060;-80
2022/12/15 11:32:05;;;;;;;85.93;32.47;;;;;;;7.99;63.73;97386.16;4339308;33;20733;-78
2022/12/15 11:34:40;;;;;;;97.88;33.67;;;;;;;8.82;59.87;97383.31;4352574;33;20111;-78
2022/12/15 11:37:11;;;;;;;110.07;36.10;;;;;;;8.47;62.39;97376.41;4338684;33;20455;-78
2022/12/15 11:40:02;;;;;;;92.68;28.55;;;;;;;8.39;61.75;97369.84;4351242;33;20084;-78
2022/12/15 11:42:52;;;;;;;78.37;25.48;;;;;;;8.11;61.77;97361.69;4350668;33;20088;-78
2022/12/15 11:45:45;;;;;;;76.85;24.70;;;;;;;8.25;62.79;97351.63;4338229;33;20117;-77
2022/12/15 11:48:25;;;;;;;79.72;28.33;;;;;;;7.84;64.99;97341.41;4351534;33;20110;-78
2022/12/15 11:51:00;;;;;;;68.12;23.12;;;;;;;5.90;74.10;97332.81;4351864;33;20170;-78
2022/12/15 11:54:05;;;;;;;83.90;30.80;;;;;;;6.01;75.09;97342.69;4340830;33;20105;-78
2022/12/15 11:56:34;;;;;;;85.72;29.33;;;;;;;7.37;68.69;97345.16;4353775;33;20106;-78
2022/12/15 11:59:01;;;;;;;103.95;30.62;;;;;;;7.69;66.08;97341.25;4357026;33;20107;-77
2022/12/15 12:01:48;;;;;;;;;;;;;;;8.00;65.48;97338.19;4354746;33;20070;-78
2022/12/15 12:04:49;;;;;;;73.57;26.08;;;;;;;8.01;64.44;97332.97;4352287;33;20380;-78
2022/12/15 12:07:47;;;;;;;58.28;22.33;;;;;;;7.76;66.00;97330.66;4351167;33;20473;-78
2022/12/15 12:10:39;;;;;;;89.35;31.62;;;;;;;7.40;68.10;97339.88;4339985;33;20116;-78
2022/12/15 12:13:33;;;;;;;89.20;31.00;;;;;;;7.82;64.64;97343.22;4337591;33;20767;-78
2022/12/15 12:16:36;;;;;;;86.68;30.90;;;;;;;7.11;68.96;97339.31;4349976;33;20175;-77
2022/12/15 12:19:08;;;;;;;92.03;31.70;;;;;;;7.19;68.80;97346.72;4350883;33;20134;-76
2022/12/15 12:21:48;;;;;;;67.82;27.05;;;;;;;7.82;65.37;97345.78;4349404;33;20103;-77
2022/12/15 12:24:31;;;;;;;65.55;27.02;;;;;;;7.79;65.77;97348.50;4350321;33;20118;-77
2022/12/15 12:27:18;;;;;;;71.90;27.05;;;;;;;7.92;64.61;97353.09;4350433;33;20146;-77
2022/12/15 12:29:48;;;;;;;77.90;31.37;;;;;;;7.80;65.56;97347.59;4350382;33;20191;-76
2022/12/15 12:32:48;;;;;;;71.15;28.98;;;;;;;7.04;68.38;97345.62;4337272;33;20099;-77
2022/12/15 12:35:29;;;;;;;73.10;28.87;;;;;;;8.05;63.64;97359.38;4322825;33;20091;-77
2022/12/15 12:38:25;;;;;;;73.90;28.00;;;;;;;7.65;65.24;97349.97;4339146;32;20123;-80
2022/12/15 12:41:01;;;;;;;73.45;28.77;;;;;;;8.10;63.54;97360.84;4350130;33;20157;-77
2022/12/15 12:43:59;;;;;;;69.43;28.85;;;;;;;8.15;64.07;97357.22;4350515;33;20146;-77
2022/12/15 12:46:32;;;;;;;67.20;27.87;;;;;;;8.64;61.68;97358.47;4350190;33;20505;-76
2022/12/15 12:49:12;;;;;;;64.00;28.27;;;;;;;7.85;64.07;97352.50;4350483;33;20083;-76
2022/12/15 12:51:40;;;;;;;69.75;28.98;;;;;;;9.05;60.53;97348.00;4336647;33;20104;-76
2022/12/15 12:54:38;;;;;;;69.15;28.48;;;;;;;8.62;61.45;97350.84;4338189;33;20107;-77
2022/12/15 12:57:11;;;;;;;67.40;30.45;;;;;;;8.31;62.93;97345.38;4350286;33;20091;-77
2022/12/15 12:59:41;;;;;;;57.20;25.67;;;;;;;7.96;63.52;97342.59;4350699;33;20106;-75
2022/12/15 13:02:14;;;;;;;60.22;27.55;;;;;;;8.56;62.58;97337.41;4349879;33;20087;-77
2022/12/15 13:04:59;;;;;;;61.42;26.62;;;;;;;8.51;61.84;97335.06;4349895;33;20446;-77
2022/12/15 13:07:39;;;;;;;64.65;28.70;;;;;;;8.08;62.90;97341.25;4350699;33;20055;-85
2022/12/15 13:10:19;;;;;;;62.25;27.70;;;;;;;8.24;63.27;97342.25;4353709;33;20091;-84
2022/12/15 13:12:58;;;;;;;65.10;27.90;;;;;;;7.82;65.30;97345.78;4360907;33;20071;-83
2022/12/15 13:15:36;;;;;;;59.53;27.00;;;;;;;7.29;66.81;97336.94;4349298;33;20134;-83
2022/12/15 13:18:15;;;;;;;68.82;29.25;;;;;;;7.17;67.91;97333.13;4348126;33;20115;-84
2022/12/15 13:20:45;;;;;;;60.90;26.85;;;;;;;7.53;67.36;97333.34;4359418;33;20118;-83
2022/12/15 13:23:19;;;;;;;62.50;27.27;;;;;;;7.49;66.62;97324.09;4351325;33;20144;-81
2022/12/15 13:25:52;;;;;;;59.22;25.10;;;;;;;7.79;66.28;97309.97;4349827;33;20095;-81
2022/12/15 13:28:37;;;;;;;65.80;24.20;;;;;;;7.87;64.99;97313.91;4349491;33;20099;-81
2022/12/15 13:31:19;;;;;;;71.40;28.67;;;;;;;7.29;67.25;97306.12;4348089;33;20575;-80
2022/12/15 13:33:50;;;;;;;73.20;29.92;;;;;;;7.39;67.26;97318.53;4348914;33;20095;-81
2022/12/15 13:36:35;;;;;;;81.03;30.75;;;;;;;7.70;65.74;97318.06;4349068;33;20129;-82
2022/12/15 13:39:04;;;;;;;82.95;30.27;;;;;;;7.48;67.36;97322.44;4349181;33;20155;-81
2022/12/15 13:41:32;;;;;;;86.82;30.23;;;;;;;7.66;66.22;97311.41;4348734;33;20422;-82
2022/12/15 13:43:59;;;;;;;78.68;28.20;;;;;;;7.74;65.53;97309.31;4349350;33;20095;-82
2022/12/15 13:46:28;;;;;;;69.37;27.02;;;;;;;7.48;67.23;97312.19;4349857;33;20759;-81
2022/12/15 13:49:24;;;;;;;75.22;28.85;;;;;;;7.76;66.25;97301.53;4336983;33;20109;-81
2022/12/15 13:51:59;;;;;;;76.22;28.75;;;;;;;7.91;64.19;97307.78;4329041;33;20076;-80
2022/12/15 13:54:34;;;;;;;84.03;32.33;;;;;;;8.15;64.42;97316.13;4349256;33;20103;-79
2022/12/15 13:57:21;;;;;;;86.63;32.55;;;;;;;8.63;62.51;97313.94;4336792;33;20508;-79
2022/12/15 13:59:58;;;;;;;70.15;29.02;;;;;;;8.92;61.23;97325.41;4350449;33;20143;-79
2022/12/15 14:02:32;;;;;;;75.72;27.62;;;;;;;8.73;61.77;97321.22;4352834;33;20430;-79
2022/12/15 14:05:24;;;;;;;69.80;28.95;;;;;;;8.06;64.08;97330.19;4350897;33;20114;-78
2022/12/15 14:07:56;;;;;;;82.43;29.60;;;;;;;6.52;72.26;97324.56;4351063;33;20099;-79
2022/12/15 14:10:29;;;;;;;73.95;28.50;;;;;;;7.46;67.49;97317.37;4353320;33;20174;-78
2022/12/15 14:12:57;;;;;;;77.00;29.50;;;;;;;7.78;66.64;97323.72;4336875;33;20083;-80
2022/12/15 14:15:29;;;;;;;80.28;28.23;;;;;;;7.96;65.89;97337.47;4349856;33;20159;-80
2022/12/15 14:17:58;;;;;;;81.90;30.00;;;;;;;6.75;72.09;97346.75;4336843;33;20107;-78
2022/12/15 14:20:28;;;;;;;87.40;33.15;;;;;;;7.05;71.87;97356.72;4350995;33;20092;-80